createdAt,value
2018-03-25T00:02:10.293Z,1.23
2018-03-25T00:04:37.781Z,1.14
2018-03-25T00:07:05.247Z,1.02
2018-03-25T00:09:33.032Z,1.01
2018-03-25T00:12:00.494Z,0.89
2018-03-25T00:14:27.938Z,1.00
2018-03-25T00:16:55.423Z,0.99
2018-03-25T00:19:22.869Z,1.07
2018-03-25T00:21:50.349Z,1.02
2018-03-25T00:24:17.805Z,0.74
2018-03-25T00:26:45.266Z,0.78
2018-03-25T00:29:12.726Z,0.74
2018-03-25T00:31:40.189Z,0.86
2018-03-25T00:34:07.742Z,0.78
2018-03-25T00:36:35.189Z,0.69
2018-03-25T00:39:02.657Z,0.66
2018-03-25T00:41:30.122Z,0.99
2018-03-25T00:43:57.569Z,0.80
2018-03-25T00:46:25.199Z,0.72
2018-03-25T00:48:52.657Z,0.73
2018-03-25T00:51:20.139Z,0.81
2018-03-25T00:53:47.605Z,0.57
2018-03-25T00:56:15.056Z,0.57
2018-03-25T00:58:42.750Z,1.18
2018-03-25T01:01:12.201Z,0.74
2018-03-25T01:03:39.665Z,0.76
2018-03-25T01:06:07.135Z,0.73
2018-03-25T01:08:34.577Z,0.77
2018-03-25T01:11:02.061Z,0.44
2018-03-25T01:13:29.514Z,0.29
2018-03-25T01:16:10.177Z,0.27
2018-03-25T01:18:37.635Z,0.23
2018-03-25T01:21:05.115Z,0.33
2018-03-25T01:23:32.605Z,0.23
2018-03-25T01:26:00.056Z,0.21
2018-03-25T01:28:27.529Z,0.13
2018-03-25T01:30:54.982Z,0.24
2018-03-25T01:33:22.433Z,0.18
2018-03-25T01:35:49.904Z,0.07
2018-03-25T01:38:17.370Z,0.20
2018-03-25T01:40:44.847Z,0.08
2018-03-25T01:43:12.294Z,0.19
2018-03-25T01:45:39.847Z,0.26
2018-03-25T01:48:07.328Z,0.44
2018-03-25T01:50:34.797Z,0.38
2018-03-25T01:53:02.521Z,0.05
2018-03-25T01:55:29.973Z,-0.05
2018-03-25T01:57:57.470Z,-0.07
2018-03-25T02:00:24.949Z,-0.09
2018-03-25T02:02:52.400Z,0.02
2018-03-25T02:05:20.061Z,-0.10
2018-03-25T02:07:47.552Z,-0.04
2018-03-25T02:10:15.006Z,-0.02
2018-03-25T02:12:42.504Z,-0.26
2018-03-25T02:15:09.981Z,-0.28
2018-03-25T02:17:37.488Z,-0.36
2018-03-25T02:20:04.951Z,-0.13
2018-03-25T02:22:32.401Z,-0.06
2018-03-25T02:24:59.885Z,-0.11
2018-03-25T02:27:27.340Z,-0.11
2018-03-25T02:29:55.074Z,-0.28
2018-03-25T02:32:22.521Z,-0.41
2018-03-25T02:34:49.989Z,-0.45
2018-03-25T02:37:17.497Z,-0.44
2018-03-25T02:39:44.969Z,-0.65
2018-03-25T02:42:12.623Z,-0.58
2018-03-25T02:44:40.079Z,-0.49
2018-03-25T02:47:07.530Z,-0.45
2018-03-25T02:49:35.005Z,-0.46
2018-03-25T02:52:02.460Z,-0.37
2018-03-25T02:54:29.942Z,-0.22
2018-03-25T02:56:57.404Z,-0.19
2018-03-25T02:59:24.845Z,-0.52
2018-03-25T03:01:52.365Z,-0.66
2018-03-25T03:04:19.814Z,-0.64
2018-03-25T03:06:47.289Z,-0.69
2018-03-25T03:09:14.781Z,-0.71
2018-03-25T03:11:42.250Z,-0.78
2018-03-25T03:14:09.723Z,-0.68
2018-03-25T03:16:37.180Z,-0.63
2018-03-25T03:19:04.666Z,-0.74
2018-03-25T03:21:32.114Z,-0.75
2018-03-25T03:23:59.564Z,-0.64
2018-03-25T03:26:27.949Z,-0.75
2018-03-25T03:28:55.403Z,-0.73
2018-03-25T03:31:22.909Z,-0.75
2018-03-25T03:33:50.385Z,-0.83
2018-03-25T03:36:17.857Z,-0.72
2018-03-25T03:38:45.325Z,-0.89
2018-03-25T03:41:12.790Z,-0.91
2018-03-25T03:43:40.393Z,-0.80
2018-03-25T03:46:07.989Z,-0.85
2018-03-25T03:48:35.444Z,-0.72
2018-03-25T03:51:02.940Z,-0.70
2018-03-25T03:53:30.404Z,-0.78
2018-03-25T03:55:58.078Z,-0.79
2018-03-25T03:58:25.533Z,-0.95
2018-03-25T04:00:52.991Z,-0.90
2018-03-25T04:03:20.461Z,-0.82
2018-03-25T04:05:48.089Z,-0.83
2018-03-25T04:08:15.713Z,-0.87
2018-03-25T04:10:43.194Z,-0.92
2018-03-25T04:13:10.645Z,-1.13
2018-03-25T04:15:38.137Z,-1.10
2018-03-25T04:18:05.595Z,-1.21
2018-03-25T04:20:33.257Z,-1.20
2018-03-25T04:23:00.701Z,-1.24
2018-03-25T04:25:28.165Z,-1.12
2018-03-25T04:27:55.669Z,-1.19
2018-03-25T04:30:23.117Z,-1.26
2018-03-25T04:32:50.718Z,-1.17
2018-03-25T04:35:18.169Z,-1.30
2018-03-25T04:37:45.635Z,-1.32
2018-03-25T04:40:13.112Z,-1.36
2018-03-25T04:42:40.585Z,-1.17
2018-03-25T04:45:08.110Z,-1.06
2018-03-25T04:47:35.578Z,-1.03
2018-03-25T04:50:03.046Z,-1.00
2018-03-25T04:52:30.513Z,-0.94
2018-03-25T04:54:57.964Z,-1.13
2018-03-25T04:57:25.726Z,-1.09
2018-03-25T04:59:53.173Z,-1.05
2018-03-25T05:02:20.654Z,-1.11
2018-03-25T05:04:48.130Z,-1.21
2018-03-25T05:07:15.589Z,-1.16
2018-03-25T05:09:43.273Z,-1.15
2018-03-25T05:12:10.725Z,-1.01
2018-03-25T05:14:38.175Z,-0.98
2018-03-25T05:17:05.650Z,-1.06
2018-03-25T05:19:33.130Z,-1.04
2018-03-25T05:22:00.619Z,-0.97
2018-03-25T05:24:28.069Z,-1.09
2018-03-25T05:26:55.521Z,-1.00
2018-03-25T05:29:23.009Z,-0.93
2018-03-25T05:31:50.591Z,-0.95
2018-03-25T05:34:18.385Z,-0.79
2018-03-25T05:36:45.861Z,-0.84
2018-03-25T05:39:13.309Z,-0.91
2018-03-25T05:41:40.795Z,-0.88
2018-03-25T05:44:08.247Z,-1.01
2018-03-25T05:46:35.774Z,-0.94
2018-03-25T05:49:03.231Z,-0.91
2018-03-25T05:51:30.681Z,-0.81
2018-03-25T05:53:58.230Z,-0.79
2018-03-25T05:56:25.673Z,-0.79
2018-03-25T05:58:53.289Z,-0.60
2018-03-25T06:01:20.770Z,-0.50
2018-03-25T06:03:48.209Z,-0.41
2018-03-25T06:06:15.693Z,-0.40
2018-03-25T06:08:43.143Z,-0.26
2018-03-25T06:11:10.665Z,-0.03
2018-03-25T06:13:38.126Z,-0.03
2018-03-25T06:16:05.569Z,0.02
2018-03-25T06:18:33.038Z,0.13
2018-03-25T06:21:00.494Z,0.06
2018-03-25T06:23:28.211Z,0.11
2018-03-25T06:25:55.670Z,0.15
2018-03-25T06:28:23.113Z,0.22
2018-03-25T06:30:50.613Z,0.21
2018-03-25T06:33:18.078Z,0.29
2018-03-25T06:35:45.745Z,0.44
2018-03-25T06:38:13.189Z,0.46
2018-03-25T06:40:40.625Z,0.53
2018-03-25T06:43:08.196Z,0.53
2018-03-25T06:45:35.657Z,0.72
2018-03-25T06:48:03.143Z,0.65
2018-03-25T06:50:30.602Z,0.72
2018-03-25T06:52:58.101Z,0.80
2018-03-25T06:55:25.578Z,1.02
2018-03-25T06:57:53.025Z,1.03
2018-03-25T07:00:20.639Z,1.13
2018-03-25T07:02:48.119Z,1.22
2018-03-25T07:05:15.549Z,1.36
2018-03-25T07:07:43.014Z,1.42
2018-03-25T07:10:10.470Z,1.48
2018-03-25T07:12:37.965Z,1.43
2018-03-25T07:15:05.413Z,1.60
2018-03-25T07:17:32.874Z,1.72
2018-03-25T07:20:00.351Z,2.00
2018-03-25T07:22:27.862Z,2.07
2018-03-25T07:24:55.331Z,2.25
2018-03-25T07:27:22.776Z,2.27
2018-03-25T07:29:50.226Z,2.50
2018-03-25T07:32:17.690Z,2.50
2018-03-25T07:34:45.135Z,2.69
2018-03-25T07:37:12.781Z,2.83
2018-03-25T07:39:40.233Z,2.91
2018-03-25T07:42:08.233Z,3.04
2018-03-25T07:44:36.191Z,3.16
2018-03-25T07:47:04.023Z,3.26
2018-03-25T07:49:31.499Z,3.65
2018-03-25T07:51:58.945Z,3.42
2018-03-25T07:54:26.398Z,3.91
2018-03-25T07:56:53.874Z,3.86
2018-03-25T07:59:21.323Z,3.68
2018-03-25T08:01:48.891Z,3.75
2018-03-25T08:04:16.350Z,3.79
2018-03-25T08:06:43.804Z,3.83
2018-03-25T08:09:11.316Z,4.16
2018-03-25T08:11:38.749Z,4.04
2018-03-25T08:14:06.438Z,4.29
2018-03-25T08:16:33.902Z,4.16
2018-03-25T08:19:01.371Z,4.39
2018-03-25T08:21:28.893Z,4.72
2018-03-25T08:23:56.298Z,4.53
2018-03-25T08:26:23.764Z,4.89
2018-03-25T08:28:51.209Z,5.56
2018-03-25T08:31:18.652Z,5.37
2018-03-25T08:33:46.113Z,5.65
2018-03-25T08:36:13.569Z,5.34
2018-03-25T08:38:41.299Z,5.36
2018-03-25T08:41:08.765Z,5.89
2018-03-25T08:43:36.211Z,5.86
2018-03-25T08:46:03.782Z,6.37
2018-03-25T08:48:31.250Z,6.21
2018-03-25T08:50:58.848Z,6.61
2018-03-25T08:53:26.301Z,6.85
2018-03-25T08:55:53.775Z,6.88
2018-03-25T08:58:21.250Z,6.54
2018-03-25T09:00:48.774Z,6.62
2018-03-25T09:03:16.581Z,6.54
2018-03-25T09:05:44.029Z,6.89
2018-03-25T09:08:11.482Z,7.13
2018-03-25T09:10:38.949Z,6.93
2018-03-25T09:13:06.408Z,7.24
2018-03-25T09:15:34.031Z,7.21
2018-03-25T09:20:28.241Z,7.90
2018-03-25T09:22:55.730Z,7.91
2018-03-25T09:25:23.176Z,7.98
2018-03-25T09:27:50.853Z,8.15
2018-03-25T09:30:18.317Z,7.93
2018-03-25T09:32:45.777Z,8.36
2018-03-25T09:35:13.253Z,8.39
2018-03-25T09:37:40.710Z,8.39
2018-03-25T09:40:08.521Z,8.28
2018-03-25T09:42:35.970Z,8.79
2018-03-25T09:45:03.431Z,8.85
2018-03-25T09:47:30.898Z,8.81
2018-03-25T09:49:58.361Z,8.59
2018-03-25T09:52:25.989Z,8.77
2018-03-25T09:54:53.441Z,8.79
2018-03-25T09:57:20.910Z,9.24
2018-03-25T09:59:48.382Z,9.30
2018-03-25T10:02:18.781Z,9.42
2018-03-25T10:04:46.405Z,9.45
2018-03-25T10:07:13.886Z,9.44
2018-03-25T10:09:41.410Z,9.59
2018-03-25T10:12:08.879Z,9.83
2018-03-25T10:14:36.351Z,9.75
2018-03-25T10:17:03.813Z,9.71
2018-03-25T10:19:31.258Z,9.93
2018-03-25T10:21:58.842Z,9.92
2018-03-25T10:24:26.302Z,10.48
2018-03-25T10:26:53.753Z,10.77
2018-03-25T10:29:21.254Z,10.78
2018-03-25T10:31:48.705Z,10.55
2018-03-25T10:34:16.482Z,10.62
2018-03-25T10:36:43.929Z,10.29
2018-03-25T10:39:11.394Z,10.82
2018-03-25T10:41:38.935Z,11.17
2018-03-25T10:44:06.381Z,11.50
2018-03-25T10:46:33.857Z,11.57
2018-03-25T10:49:01.306Z,11.52
2018-03-25T10:51:28.762Z,11.59
2018-03-25T10:53:56.259Z,11.44
2018-03-25T10:56:23.729Z,11.39
2018-03-25T10:58:51.342Z,10.86
2018-03-25T11:01:18.792Z,10.89
2018-03-25T11:03:46.243Z,10.96
2018-03-25T11:06:13.725Z,10.92
2018-03-25T11:08:41.208Z,11.20
2018-03-25T11:11:09.125Z,11.47
2018-03-25T11:13:36.581Z,11.78
2018-03-25T11:16:04.040Z,11.52
2018-03-25T11:18:31.509Z,11.48
2018-03-25T11:20:58.988Z,11.38
2018-03-25T11:23:26.613Z,11.79
2018-03-25T11:25:54.062Z,11.64
2018-03-25T11:28:21.520Z,12.18
2018-03-25T11:30:48.993Z,12.12
2018-03-25T11:33:16.443Z,11.60
2018-03-25T11:35:43.935Z,11.74
2018-03-25T11:38:11.392Z,12.12
2018-03-25T11:40:38.878Z,11.81
2018-03-25T11:43:06.384Z,12.42
2018-03-25T11:45:33.902Z,12.18
2018-03-25T11:48:01.567Z,12.77
2018-03-25T11:50:29.016Z,12.83
2018-03-25T11:52:56.482Z,13.16
2018-03-25T11:55:23.966Z,12.92
2018-03-25T11:57:51.425Z,13.17
2018-03-25T12:00:18.937Z,12.79
2018-03-25T12:02:46.421Z,12.34
2018-03-25T12:05:13.885Z,12.25
2018-03-25T12:07:41.378Z,12.49
2018-03-25T12:10:08.869Z,12.72
2018-03-25T12:12:36.357Z,12.53
2018-03-25T12:15:03.809Z,12.34
2018-03-25T12:17:31.265Z,12.10
2018-03-25T12:19:58.757Z,12.60
2018-03-25T12:22:26.214Z,12.96
2018-03-25T12:24:53.697Z,12.85
2018-03-25T12:27:21.145Z,13.01
2018-03-25T12:29:48.603Z,13.28
2018-03-25T12:32:16.302Z,13.37
2018-03-25T12:34:43.770Z,12.66
2018-03-25T12:37:11.350Z,12.88
2018-03-25T12:39:38.803Z,12.83
2018-03-25T12:42:06.253Z,12.76
2018-03-25T12:44:33.741Z,13.13
2018-03-25T12:47:01.193Z,13.25
2018-03-25T12:49:29.006Z,13.26
2018-03-25T12:51:56.463Z,13.23
2018-03-25T12:54:23.909Z,13.00
2018-03-25T12:56:51.382Z,13.43
2018-03-25T12:59:18.837Z,13.07
2018-03-25T13:01:46.318Z,13.42
2018-03-25T13:04:13.766Z,13.45
2018-03-25T13:06:41.221Z,13.32
2018-03-25T13:09:08.863Z,13.59
2018-03-25T13:11:36.328Z,13.60
2018-03-25T13:14:04.212Z,12.90
2018-03-25T13:16:31.675Z,12.74
2018-03-25T13:18:59.129Z,12.94
2018-03-25T13:21:26.609Z,12.96
2018-03-25T13:23:54.065Z,13.43
2018-03-25T13:26:21.557Z,13.54
2018-03-25T13:28:49.042Z,13.77
2018-03-25T13:31:16.489Z,13.87
2018-03-25T13:33:43.957Z,13.62
2018-03-25T13:36:11.409Z,13.69
2018-03-25T13:38:38.889Z,13.57
2018-03-25T13:41:06.362Z,14.00
2018-03-25T13:43:33.810Z,13.73
2018-03-25T13:46:01.303Z,13.60
2018-03-25T13:48:28.768Z,13.83
2018-03-25T13:50:56.222Z,14.15
2018-03-25T13:53:23.700Z,14.25
2018-03-25T13:55:51.165Z,13.93
2018-03-25T13:58:18.658Z,13.72
2018-03-25T14:00:46.338Z,13.71
2018-03-25T14:03:13.809Z,13.85
2018-03-25T14:05:41.265Z,14.02
2018-03-25T14:08:08.882Z,13.90
2018-03-25T14:10:36.332Z,13.72
2018-03-25T14:13:03.790Z,13.73
2018-03-25T14:15:31.296Z,13.89
2018-03-25T14:17:58.772Z,13.72
2018-03-25T14:20:26.228Z,14.14
2018-03-25T14:22:53.895Z,13.98
2018-03-25T14:25:21.351Z,13.96
2018-03-25T14:27:48.818Z,13.56
2018-03-25T14:30:16.311Z,13.23
2018-03-25T14:32:43.781Z,13.65
2018-03-25T14:35:11.242Z,13.93
2018-03-25T14:37:39.013Z,14.09
2018-03-25T14:40:06.463Z,14.19
2018-03-25T14:42:33.953Z,14.14
2018-03-25T14:45:01.455Z,14.33
2018-03-25T14:47:28.925Z,14.52
2018-03-25T14:49:56.391Z,14.16
2018-03-25T14:52:23.904Z,14.20
2018-03-25T14:54:51.384Z,14.09
2018-03-25T14:57:18.869Z,14.33
2018-03-25T14:59:46.333Z,14.57
2018-03-25T15:02:13.811Z,14.11
2018-03-25T15:04:41.285Z,13.91
2018-03-25T15:07:08.751Z,13.94
2018-03-25T15:09:36.405Z,14.21
2018-03-25T15:12:03.869Z,14.04
2018-03-25T15:14:31.318Z,13.98
2018-03-25T15:16:58.793Z,14.06
2018-03-25T15:19:26.275Z,13.91
2018-03-25T15:21:54.042Z,14.06
2018-03-25T15:24:21.552Z,13.76
2018-03-25T15:26:49.006Z,13.72
2018-03-25T15:29:16.477Z,13.37
2018-03-25T15:31:43.946Z,13.57
2018-03-25T15:34:11.629Z,13.47
2018-03-25T15:36:39.119Z,13.68
2018-03-25T15:39:06.879Z,13.56
2018-03-25T15:41:34.377Z,13.87
2018-03-25T15:44:01.872Z,13.65
2018-03-25T15:46:29.373Z,13.87
2018-03-25T15:48:56.869Z,13.96
2018-03-25T15:51:24.321Z,13.90
2018-03-25T15:53:51.805Z,14.04
2018-03-25T15:56:19.266Z,14.22
2018-03-25T15:58:46.891Z,13.91
2018-03-25T16:01:14.402Z,14.00
2018-03-25T16:03:41.871Z,13.58
2018-03-25T16:06:09.351Z,13.54
2018-03-25T16:08:36.803Z,13.38
2018-03-25T16:11:04.293Z,13.50
2018-03-25T16:13:31.757Z,13.56
2018-03-25T16:15:59.205Z,13.58
2018-03-25T16:18:26.677Z,13.63
2018-03-25T16:20:54.133Z,13.51
2018-03-25T16:23:21.943Z,13.71
2018-03-25T16:25:49.428Z,13.33
2018-03-25T16:28:16.881Z,13.43
2018-03-25T16:30:44.371Z,13.44
2018-03-25T16:33:11.885Z,13.50
2018-03-25T16:35:39.381Z,13.39
2018-03-25T16:38:06.857Z,13.54
2018-03-25T16:40:34.335Z,13.63
2018-03-25T16:43:01.810Z,13.47
2018-03-25T16:45:29.288Z,13.39
2018-03-25T16:47:56.785Z,13.40
2018-03-25T16:50:24.250Z,13.32
2018-03-25T16:52:51.723Z,13.38
2018-03-25T16:55:19.215Z,13.32
2018-03-25T16:57:46.663Z,13.33
2018-03-25T17:00:14.298Z,13.20
2018-03-25T17:02:41.784Z,13.31
2018-03-25T17:05:09.258Z,13.34
2018-03-25T17:07:36.749Z,13.30
2018-03-25T17:10:04.221Z,13.34
2018-03-25T17:12:31.842Z,13.26
2018-03-25T17:15:00.268Z,13.16
2018-03-25T17:17:27.745Z,13.02
2018-03-25T17:19:55.227Z,12.93
2018-03-25T17:22:22.705Z,12.86
2018-03-25T17:24:50.520Z,12.88
2018-03-25T17:27:18.021Z,12.88
2018-03-25T17:29:45.487Z,12.64
2018-03-25T17:32:12.990Z,12.75
2018-03-25T17:34:40.449Z,12.68
2018-03-25T17:37:07.933Z,12.54
2018-03-25T17:39:35.390Z,12.66
2018-03-25T17:42:02.849Z,12.47
2018-03-25T17:44:30.331Z,12.52
2018-03-25T17:46:57.786Z,12.36
2018-03-25T17:49:25.649Z,12.41
2018-03-25T17:51:53.146Z,12.23
2018-03-25T17:54:20.610Z,12.31
2018-03-25T17:56:48.174Z,12.19
2018-03-25T17:59:15.656Z,11.83
2018-03-25T18:01:43.166Z,11.69
2018-03-25T18:04:10.651Z,11.64
2018-03-25T18:06:38.122Z,11.34
2018-03-25T18:09:06.561Z,11.31
2018-03-25T18:11:34.029Z,11.31
2018-03-25T18:14:01.549Z,11.29
2018-03-25T18:16:29.022Z,11.13
2018-03-25T18:18:56.478Z,11.17
2018-03-25T18:21:23.953Z,11.08
2018-03-25T18:23:51.410Z,11.03
2018-03-25T18:26:19.039Z,10.98
2018-03-25T18:28:46.512Z,10.91
2018-03-25T18:31:14.003Z,10.85
2018-03-25T18:33:41.494Z,10.75
2018-03-25T18:36:08.964Z,10.68
2018-03-25T18:38:36.676Z,10.71
2018-03-25T18:41:04.133Z,10.52
2018-03-25T18:43:31.597Z,10.55
2018-03-25T18:45:59.078Z,10.72
2018-03-25T18:48:26.559Z,10.57
2018-03-25T18:50:54.197Z,10.27
2018-03-25T18:53:21.658Z,10.38
2018-03-25T18:55:49.147Z,10.23
2018-03-25T18:58:16.681Z,9.99
2018-03-25T19:00:44.132Z,9.57
2018-03-25T19:03:11.613Z,9.68
2018-03-25T19:05:39.073Z,9.38
2018-03-25T19:08:06.528Z,9.12
2018-03-25T19:10:34.005Z,8.92
2018-03-25T19:13:01.468Z,8.83
2018-03-25T19:15:29.140Z,8.39
2018-03-25T19:17:56.586Z,8.08
2018-03-25T19:20:24.033Z,8.02
2018-03-25T19:22:51.501Z,7.75
2018-03-25T19:25:18.950Z,7.66
2018-03-25T19:27:46.650Z,7.62
2018-03-25T19:30:14.106Z,7.46
2018-03-25T19:32:41.557Z,7.45
2018-03-25T19:35:09.026Z,7.34
2018-03-25T19:37:36.478Z,7.27
2018-03-25T19:40:04.090Z,7.10
2018-03-25T19:42:31.553Z,6.97
2018-03-25T19:44:59.001Z,6.86
2018-03-25T19:47:26.485Z,6.94
2018-03-25T19:49:53.946Z,6.81
2018-03-25T19:52:22.121Z,6.51
2018-03-25T19:54:49.595Z,6.56
2018-03-25T19:57:17.050Z,6.54
2018-03-25T19:59:44.529Z,6.45
2018-03-25T20:02:12.006Z,6.33
2018-03-25T20:04:39.817Z,6.28
2018-03-25T20:07:07.274Z,6.12
2018-03-25T20:09:34.720Z,6.02
2018-03-25T20:12:02.187Z,5.90
2018-03-25T20:14:29.711Z,6.05
2018-03-25T20:16:57.291Z,5.94
2018-03-25T20:19:24.753Z,5.90
2018-03-25T20:21:52.201Z,5.73
2018-03-25T20:24:19.665Z,5.46
2018-03-25T20:26:47.126Z,5.47
2018-03-25T20:29:14.881Z,5.47
2018-03-25T20:31:42.329Z,5.46
2018-03-25T20:34:09.794Z,5.46
2018-03-25T20:36:37.281Z,5.52
2018-03-25T20:39:04.742Z,5.36
2018-03-25T20:41:32.384Z,5.26
2018-03-25T20:43:59.825Z,5.25
2018-03-25T20:46:27.277Z,5.21
2018-03-25T20:48:54.757Z,5.26
2018-03-25T20:51:22.211Z,5.42
2018-03-25T20:53:49.923Z,5.31
2018-03-25T20:56:17.366Z,5.43
2018-03-25T20:58:44.813Z,5.37
2018-03-25T21:01:12.282Z,5.54
2018-03-25T21:03:39.734Z,5.59
2018-03-25T21:06:07.284Z,5.55
2018-03-25T21:08:34.729Z,5.54
2018-03-25T21:11:02.185Z,5.59
2018-03-25T21:13:29.674Z,5.72
2018-03-25T21:15:57.117Z,5.56
2018-03-25T21:18:24.601Z,5.70
2018-03-25T21:20:52.053Z,5.62
2018-03-25T21:23:19.506Z,5.54
2018-03-25T21:25:46.986Z,5.46
2018-03-25T21:28:14.429Z,5.46
2018-03-25T21:30:42.074Z,5.37
2018-03-25T21:33:09.518Z,5.55
2018-03-25T21:35:37.075Z,5.45
2018-03-25T21:38:04.538Z,5.39
2018-03-25T21:40:32.000Z,5.54
2018-03-25T21:42:59.474Z,5.68
2018-03-25T21:45:26.924Z,5.67
2018-03-25T21:47:54.372Z,5.55
2018-03-25T21:50:21.844Z,5.65
2018-03-25T21:52:49.335Z,5.55
2018-03-25T21:55:16.985Z,5.19
2018-03-25T21:57:44.471Z,5.22
2018-03-25T22:00:11.950Z,5.54
2018-03-25T22:02:39.428Z,5.63
2018-03-25T22:05:06.911Z,5.62
2018-03-25T22:07:34.657Z,5.75
2018-03-25T22:10:02.116Z,5.77
2018-03-25T22:12:29.586Z,5.78
2018-03-25T22:14:57.056Z,5.79
2018-03-25T22:17:24.514Z,5.80
2018-03-25T22:19:52.228Z,5.71
2018-03-25T22:22:19.683Z,5.47
2018-03-25T22:24:47.134Z,5.69
2018-03-25T22:27:14.601Z,5.58
2018-03-25T22:29:42.070Z,5.64
2018-03-25T22:32:09.780Z,5.64
2018-03-25T22:34:37.197Z,5.59
2018-03-25T22:37:04.663Z,5.60
2018-03-25T22:39:32.139Z,5.60
2018-03-25T22:41:59.585Z,5.62
2018-03-25T22:44:27.409Z,5.59
2018-03-25T22:46:54.857Z,5.59
2018-03-25T22:49:22.298Z,5.60
2018-03-25T22:51:49.757Z,5.36
2018-03-25T22:54:17.201Z,5.58
2018-03-25T22:56:44.838Z,5.74
2018-03-25T22:59:12.281Z,5.59
2018-03-25T23:01:39.729Z,5.71
2018-03-25T23:04:07.205Z,5.80
2018-03-25T23:06:34.657Z,5.87
2018-03-25T23:09:02.496Z,5.89
2018-03-25T23:11:29.942Z,5.94
2018-03-25T23:13:57.389Z,5.89
2018-03-25T23:16:24.885Z,5.89
2018-03-25T23:18:52.342Z,5.80
2018-03-25T23:21:20.051Z,5.82
2018-03-25T23:23:47.510Z,5.85
2018-03-25T23:26:14.973Z,5.68
2018-03-25T23:28:42.445Z,5.76
2018-03-25T23:31:09.889Z,5.73
2018-03-25T23:33:37.369Z,5.69
2018-03-25T23:36:04.825Z,5.67
2018-03-25T23:38:32.290Z,5.67
2018-03-25T23:40:59.783Z,5.81
2018-03-25T23:43:27.228Z,5.75
2018-03-25T23:45:54.865Z,5.65
2018-03-25T23:48:22.325Z,5.52
2018-03-25T23:50:49.766Z,5.72
2018-03-25T23:53:17.256Z,5.78
2018-03-25T23:55:44.697Z,5.79
2018-03-25T23:58:12.173Z,5.79
